sensor_id;sensor_type;location;lat;lon;timestamp;P1;durP1;ratioP1;P2;durP2;ratioP2
10303;SDS011;5197;48.152;8.590;2022-08-03T00:01:26;2.40;;;2.30;;
10303;SDS011;5197;48.152;8.590;2022-08-03T00:03:53;3.05;;;2.55;;
10303;SDS011;5197;48.152;8.590;2022-08-03T00:06:20;3.17;;;2.60;;
10303;SDS011;5197;48.152;8.590;2022-08-03T00:08:47;2.47;;;2.38;;
10303;SDS011;5197;48.152;8.590;2022-08-03T00:11:14;4.63;;;2.38;;
10303;SDS011;5197;48.152;8.590;2022-08-03T00:13:41;2.60;;;2.40;;
10303;SDS011;5197;48.152;8.590;2022-08-03T00:16:08;2.95;;;2.70;;
10303;SDS011;5197;48.152;8.590;2022-08-03T00:18:36;2.53;;;2.33;;
10303;SDS011;5197;48.152;8.590;2022-08-03T00:21:03;2.57;;;2.40;;
10303;SDS011;5197;48.152;8.590;2022-08-03T00:23:31;2.67;;;2.57;;
10303;SDS011;5197;48.152;8.590;2022-08-03T00:26:18;2.93;;;2.57;;
10303;SDS011;5197;48.152;8.590;2022-08-03T00:28:46;2.77;;;2.60;;
10303;SDS011;5197;48.152;8.590;2022-08-03T00:31:13;3.03;;;2.83;;
10303;SDS011;5197;48.152;8.590;2022-08-03T00:33:40;2.90;;;2.70;;
10303;SDS011;5197;48.152;8.590;2022-08-03T00:36:30;2.70;;;2.50;;
10303;SDS011;5197;48.152;8.590;2022-08-03T00:38:57;2.50;;;2.30;;
10303;SDS011;5197;48.152;8.590;2022-08-03T00:41:24;3.90;;;2.30;;
10303;SDS011;5197;48.152;8.590;2022-08-03T00:43:51;2.60;;;2.40;;
10303;SDS011;5197;48.152;8.590;2022-08-03T00:46:18;2.70;;;2.50;;
10303;SDS011;5197;48.152;8.590;2022-08-03T00:48:48;2.57;;;2.37;;
10303;SDS011;5197;48.152;8.590;2022-08-03T00:51:15;3.10;;;2.47;;
10303;SDS011;5197;48.152;8.590;2022-08-03T00:53:44;2.97;;;2.47;;
10303;SDS011;5197;48.152;8.590;2022-08-03T00:56:14;3.77;;;2.87;;
10303;SDS011;5197;48.152;8.590;2022-08-03T00:58:42;4.63;;;2.70;;
10303;SDS011;5197;48.152;8.590;2022-08-03T01:01:10;2.80;;;2.60;;
10303;SDS011;5197;48.152;8.590;2022-08-03T01:03:38;2.60;;;2.50;;
10303;SDS011;5197;48.152;8.590;2022-08-03T01:06:18;2.87;;;2.73;;
10303;SDS011;5197;48.152;8.590;2022-08-03T01:11:57;2.63;;;2.50;;
10303;SDS011;5197;48.152;8.590;2022-08-03T01:14:35;2.67;;;2.47;;
10303;SDS011;5197;48.152;8.590;2022-08-03T01:20:11;2.80;;;2.60;;
10303;SDS011;5197;48.152;8.590;2022-08-03T01:25:45;2.97;;;2.60;;
10303;SDS011;5197;48.152;8.590;2022-08-03T01:28:44;2.60;;;2.50;;
10303;SDS011;5197;48.152;8.590;2022-08-03T01:31:31;2.70;;;2.60;;
10303;SDS011;5197;48.152;8.590;2022-08-03T01:35:08;2.60;;;2.40;;
10303;SDS011;5197;48.152;8.590;2022-08-03T01:37:38;3.47;;;2.87;;
10303;SDS011;5197;48.152;8.590;2022-08-03T01:40:09;3.40;;;2.77;;
10303;SDS011;5197;48.152;8.590;2022-08-03T01:42:40;2.97;;;2.77;;
10303;SDS011;5197;48.152;8.590;2022-08-03T01:45:08;2.90;;;2.70;;
10303;SDS011;5197;48.152;8.590;2022-08-03T01:47:38;2.73;;;2.60;;
10303;SDS011;5197;48.152;8.590;2022-08-03T01:50:06;3.00;;;2.80;;
10303;SDS011;5197;48.152;8.590;2022-08-03T01:52:36;2.93;;;2.83;;
10303;SDS011;5197;48.152;8.590;2022-08-03T01:55:08;3.30;;;2.73;;
10303;SDS011;5197;48.152;8.590;2022-08-03T01:57:37;4.10;;;2.67;;
10303;SDS011;5197;48.152;8.590;2022-08-03T02:00:26;3.30;;;3.10;;
10303;SDS011;5197;48.152;8.590;2022-08-03T02:02:53;3.10;;;2.80;;
10303;SDS011;5197;48.152;8.590;2022-08-03T02:05:21;3.63;;;2.63;;
10303;SDS011;5197;48.152;8.590;2022-08-03T02:07:49;2.80;;;2.70;;
10303;SDS011;5197;48.152;8.590;2022-08-03T02:10:18;3.00;;;2.80;;
10303;SDS011;5197;48.152;8.590;2022-08-03T02:13:01;2.67;;;2.57;;
10303;SDS011;5197;48.152;8.590;2022-08-03T02:15:30;2.50;;;2.40;;
10303;SDS011;5197;48.152;8.590;2022-08-03T02:17:59;2.93;;;2.73;;
10303;SDS011;5197;48.152;8.590;2022-08-03T02:20:27;3.20;;;2.90;;
10303;SDS011;5197;48.152;8.590;2022-08-03T02:22:58;3.30;;;2.90;;
10303;SDS011;5197;48.152;8.590;2022-08-03T02:25:25;3.20;;;2.97;;
10303;SDS011;5197;48.152;8.590;2022-08-03T02:27:54;4.30;;;2.80;;
10303;SDS011;5197;48.152;8.590;2022-08-03T02:30:26;2.77;;;2.57;;
10303;SDS011;5197;48.152;8.590;2022-08-03T02:33:04;3.20;;;2.90;;
10303;SDS011;5197;48.152;8.590;2022-08-03T02:35:36;3.20;;;2.90;;
10303;SDS011;5197;48.152;8.590;2022-08-03T02:38:06;2.83;;;2.57;;
10303;SDS011;5197;48.152;8.590;2022-08-03T02:40:35;3.13;;;2.97;;
10303;SDS011;5197;48.152;8.590;2022-08-03T02:43:06;4.43;;;2.90;;
10303;SDS011;5197;48.152;8.590;2022-08-03T02:45:41;2.97;;;2.80;;
10303;SDS011;5197;48.152;8.590;2022-08-03T02:48:14;3.03;;;2.80;;
10303;SDS011;5197;48.152;8.590;2022-08-03T02:50:43;3.13;;;2.87;;
10303;SDS011;5197;48.152;8.590;2022-08-03T02:53:12;3.37;;;2.70;;
10303;SDS011;5197;48.152;8.590;2022-08-03T02:55:41;3.83;;;2.80;;
10303;SDS011;5197;48.152;8.590;2022-08-03T02:58:11;3.00;;;2.80;;
10303;SDS011;5197;48.152;8.590;2022-08-03T03:00:40;2.97;;;2.77;;
10303;SDS011;5197;48.152;8.590;2022-08-03T03:03:11;2.80;;;2.70;;
10303;SDS011;5197;48.152;8.590;2022-08-03T03:05:39;3.43;;;2.90;;
10303;SDS011;5197;48.152;8.590;2022-08-03T03:08:22;3.33;;;2.87;;
10303;SDS011;5197;48.152;8.590;2022-08-03T03:10:58;2.93;;;2.73;;
10303;SDS011;5197;48.152;8.590;2022-08-03T03:13:29;2.70;;;2.50;;
10303;SDS011;5197;48.152;8.590;2022-08-03T03:15:59;3.03;;;2.90;;
10303;SDS011;5197;48.152;8.590;2022-08-03T03:18:28;4.47;;;2.90;;
10303;SDS011;5197;48.152;8.590;2022-08-03T03:20:59;3.10;;;2.90;;
10303;SDS011;5197;48.152;8.590;2022-08-03T03:23:28;3.97;;;2.87;;
10303;SDS011;5197;48.152;8.590;2022-08-03T03:25:55;3.27;;;2.97;;
10303;SDS011;5197;48.152;8.590;2022-08-03T03:28:24;2.93;;;2.40;;
10303;SDS011;5197;48.152;8.590;2022-08-03T03:30:51;2.67;;;2.57;;
10303;SDS011;5197;48.152;8.590;2022-08-03T03:33:19;3.20;;;2.90;;
10303;SDS011;5197;48.152;8.590;2022-08-03T03:35:47;3.27;;;3.07;;
10303;SDS011;5197;48.152;8.590;2022-08-03T03:38:15;3.20;;;2.90;;
10303;SDS011;5197;48.152;8.590;2022-08-03T03:40:42;4.70;;;2.93;;
10303;SDS011;5197;48.152;8.590;2022-08-03T03:43:10;2.77;;;2.67;;
10303;SDS011;5197;48.152;8.590;2022-08-03T03:45:41;4.17;;;3.03;;
10303;SDS011;5197;48.152;8.590;2022-08-03T03:48:09;2.90;;;2.73;;
10303;SDS011;5197;48.152;8.590;2022-08-03T03:50:36;3.00;;;2.80;;
10303;SDS011;5197;48.152;8.590;2022-08-03T03:53:09;3.63;;;2.90;;
10303;SDS011;5197;48.152;8.590;2022-08-03T03:55:37;4.40;;;2.87;;
10303;SDS011;5197;48.152;8.590;2022-08-03T03:58:25;3.30;;;3.10;;
10303;SDS011;5197;48.152;8.590;2022-08-03T04:00:52;3.33;;;3.00;;
10303;SDS011;5197;48.152;8.590;2022-08-03T04:03:19;6.23;;;2.90;;
10303;SDS011;5197;48.152;8.590;2022-08-03T04:05:46;3.10;;;2.90;;
10303;SDS011;5197;48.152;8.590;2022-08-03T04:08:32;3.23;;;2.97;;
10303;SDS011;5197;48.152;8.590;2022-08-03T04:11:35;2.93;;;2.80;;
10303;SDS011;5197;48.152;8.590;2022-08-03T04:14:10;2.90;;;2.80;;
10303;SDS011;5197;48.152;8.590;2022-08-03T04:16:41;3.20;;;2.90;;
10303;SDS011;5197;48.152;8.590;2022-08-03T04:19:13;3.13;;;2.77;;
10303;SDS011;5197;48.152;8.590;2022-08-03T04:21:49;3.60;;;3.30;;
10303;SDS011;5197;48.152;8.590;2022-08-03T04:24:22;4.63;;;3.00;;
10303;SDS011;5197;48.152;8.590;2022-08-03T04:26:53;3.37;;;3.17;;
10303;SDS011;5197;48.152;8.590;2022-08-03T04:29:22;4.20;;;3.20;;
10303;SDS011;5197;48.152;8.590;2022-08-03T04:31:52;3.63;;;3.30;;
10303;SDS011;5197;48.152;8.590;2022-08-03T04:34:20;3.53;;;3.23;;
10303;SDS011;5197;48.152;8.590;2022-08-03T04:36:48;3.53;;;2.97;;
10303;SDS011;5197;48.152;8.590;2022-08-03T04:39:25;3.23;;;3.03;;
10303;SDS011;5197;48.152;8.590;2022-08-03T04:41:56;3.73;;;3.33;;
10303;SDS011;5197;48.152;8.590;2022-08-03T04:44:37;3.33;;;3.03;;
10303;SDS011;5197;48.152;8.590;2022-08-03T04:47:07;3.40;;;3.20;;
10303;SDS011;5197;48.152;8.590;2022-08-03T04:49:37;5.67;;;3.40;;
10303;SDS011;5197;48.152;8.590;2022-08-03T04:52:08;3.30;;;3.10;;
10303;SDS011;5197;48.152;8.590;2022-08-03T04:54:40;3.83;;;3.00;;
10303;SDS011;5197;48.152;8.590;2022-08-03T04:57:15;3.07;;;2.87;;
10303;SDS011;5197;48.152;8.590;2022-08-03T04:59:49;2.80;;;2.70;;
10303;SDS011;5197;48.152;8.590;2022-08-03T05:02:27;3.03;;;2.83;;
10303;SDS011;5197;48.152;8.590;2022-08-03T05:04:55;3.00;;;2.87;;
10303;SDS011;5197;48.152;8.590;2022-08-03T05:07:22;3.17;;;2.87;;
10303;SDS011;5197;48.152;8.590;2022-08-03T05:09:50;3.83;;;3.37;;
10303;SDS011;5197;48.152;8.590;2022-08-03T05:12:28;5.20;;;3.63;;
10303;SDS011;5197;48.152;8.590;2022-08-03T05:14:58;3.30;;;3.10;;
10303;SDS011;5197;48.152;8.590;2022-08-03T05:17:26;4.50;;;3.83;;
10303;SDS011;5197;48.152;8.590;2022-08-03T05:19:53;9.93;;;7.20;;
10303;SDS011;5197;48.152;8.590;2022-08-03T05:22:21;3.43;;;3.13;;
10303;SDS011;5197;48.152;8.590;2022-08-03T05:24:48;3.60;;;3.40;;
10303;SDS011;5197;48.152;8.590;2022-08-03T05:27:15;3.40;;;3.20;;
10303;SDS011;5197;48.152;8.590;2022-08-03T05:29:46;6.47;;;4.03;;
10303;SDS011;5197;48.152;8.590;2022-08-03T05:32:14;3.33;;;3.07;;
10303;SDS011;5197;48.152;8.590;2022-08-03T05:34:42;3.40;;;3.20;;
10303;SDS011;5197;48.152;8.590;2022-08-03T05:37:09;4.17;;;3.73;;
10303;SDS011;5197;48.152;8.590;2022-08-03T05:39:36;3.80;;;3.47;;
10303;SDS011;5197;48.152;8.590;2022-08-03T05:42:03;5.47;;;3.50;;
10303;SDS011;5197;48.152;8.590;2022-08-03T05:44:31;3.53;;;3.30;;
10303;SDS011;5197;48.152;8.590;2022-08-03T05:46:58;12.33;;;3.80;;
10303;SDS011;5197;48.152;8.590;2022-08-03T05:49:26;3.90;;;3.57;;
10303;SDS011;5197;48.152;8.590;2022-08-03T05:51:53;3.83;;;3.13;;
10303;SDS011;5197;48.152;8.590;2022-08-03T05:54:35;4.13;;;3.00;;
10303;SDS011;5197;48.152;8.590;2022-08-03T05:57:23;3.50;;;3.20;;
10303;SDS011;5197;48.152;8.590;2022-08-03T05:59:50;3.07;;;2.87;;
10303;SDS011;5197;48.152;8.590;2022-08-03T06:02:24;3.67;;;2.93;;
10303;SDS011;5197;48.152;8.590;2022-08-03T06:04:52;3.67;;;2.80;;
10303;SDS011;5197;48.152;8.590;2022-08-03T06:07:19;2.67;;;2.50;;
10303;SDS011;5197;48.152;8.590;2022-08-03T06:09:46;2.83;;;2.60;;
10303;SDS011;5197;48.152;8.590;2022-08-03T06:12:33;5.78;;;2.58;;
10303;SDS011;5197;48.152;8.590;2022-08-03T06:15:02;3.25;;;2.50;;
10303;SDS011;5197;48.152;8.590;2022-08-03T06:17:30;4.50;;;3.00;;
10303;SDS011;5197;48.152;8.590;2022-08-03T06:20:03;5.20;;;2.83;;
10303;SDS011;5197;48.152;8.590;2022-08-03T06:22:31;3.60;;;2.80;;
10303;SDS011;5197;48.152;8.590;2022-08-03T06:25:00;3.35;;;2.63;;
10303;SDS011;5197;48.152;8.590;2022-08-03T06:27:30;11.65;;;2.60;;
10303;SDS011;5197;48.152;8.590;2022-08-03T06:30:03;3.53;;;2.40;;
10303;SDS011;5197;48.152;8.590;2022-08-03T06:32:30;5.25;;;2.58;;
10303;SDS011;5197;48.152;8.590;2022-08-03T06:34:57;2.40;;;2.20;;
10303;SDS011;5197;48.152;8.590;2022-08-03T06:37:24;5.32;;;2.70;;
10303;SDS011;5197;48.152;8.590;2022-08-03T06:39:52;3.10;;;2.78;;
10303;SDS011;5197;48.152;8.590;2022-08-03T06:42:19;2.78;;;2.60;;
10303;SDS011;5197;48.152;8.590;2022-08-03T06:44:48;2.78;;;2.50;;
10303;SDS011;5197;48.152;8.590;2022-08-03T06:47:15;2.72;;;2.53;;
10303;SDS011;5197;48.152;8.590;2022-08-03T06:49:42;2.25;;;2.05;;
10303;SDS011;5197;48.152;8.590;2022-08-03T06:52:29;2.80;;;2.20;;
10303;SDS011;5197;48.152;8.590;2022-08-03T06:55:04;2.13;;;2.00;;
10303;SDS011;5197;48.152;8.590;2022-08-03T06:57:32;2.35;;;2.25;;
10303;SDS011;5197;48.152;8.590;2022-08-03T06:59:59;2.10;;;2.00;;
10303;SDS011;5197;48.152;8.590;2022-08-03T07:02:37;3.63;;;2.20;;
10303;SDS011;5197;48.152;8.590;2022-08-03T07:05:05;2.00;;;1.80;;
10303;SDS011;5197;48.152;8.590;2022-08-03T07:07:33;1.63;;;1.60;;
10303;SDS011;5197;48.152;8.590;2022-08-03T07:10:01;1.98;;;1.60;;
10303;SDS011;5197;48.152;8.590;2022-08-03T07:12:28;1.70;;;1.70;;
10303;SDS011;5197;48.152;8.590;2022-08-03T07:14:57;1.50;;;1.50;;
10303;SDS011;5197;48.152;8.590;2022-08-03T07:17:28;2.00;;;1.90;;
10303;SDS011;5197;48.152;8.590;2022-08-03T07:20:00;3.58;;;2.00;;
10303;SDS011;5197;48.152;8.590;2022-08-03T07:22:30;1.77;;;1.77;;
10303;SDS011;5197;48.152;8.590;2022-08-03T07:24:57;2.05;;;1.90;;
10303;SDS011;5197;48.152;8.590;2022-08-03T07:27:24;1.75;;;1.65;;
10303;SDS011;5197;48.152;8.590;2022-08-03T07:29:52;2.10;;;2.00;;
10303;SDS011;5197;48.152;8.590;2022-08-03T07:32:20;1.77;;;1.60;;
10303;SDS011;5197;48.152;8.590;2022-08-03T07:34:48;2.90;;;1.95;;
10303;SDS011;5197;48.152;8.590;2022-08-03T07:37:15;5.47;;;1.75;;
10303;SDS011;5197;48.152;8.590;2022-08-03T07:39:42;1.83;;;1.65;;
10303;SDS011;5197;48.152;8.590;2022-08-03T07:42:09;1.85;;;1.75;;
10303;SDS011;5197;48.152;8.590;2022-08-03T07:44:36;1.80;;;1.70;;
10303;SDS011;5197;48.152;8.590;2022-08-03T07:47:04;3.20;;;1.90;;
10303;SDS011;5197;48.152;8.590;2022-08-03T07:49:39;2.65;;;1.60;;
10303;SDS011;5197;48.152;8.590;2022-08-03T07:52:06;2.47;;;1.63;;
10303;SDS011;5197;48.152;8.590;2022-08-03T07:54:54;4.20;;;2.10;;
10303;SDS011;5197;48.152;8.590;2022-08-03T07:57:21;7.32;;;1.98;;
10303;SDS011;5197;48.152;8.590;2022-08-03T07:59:48;2.00;;;1.90;;
10303;SDS011;5197;48.152;8.590;2022-08-03T08:02:27;6.18;;;2.05;;
10303;SDS011;5197;48.152;8.590;2022-08-03T08:04:54;7.05;;;1.73;;
10303;SDS011;5197;48.152;8.590;2022-08-03T08:07:21;7.53;;;2.03;;
10303;SDS011;5197;48.152;8.590;2022-08-03T08:09:48;1.75;;;1.58;;
10303;SDS011;5197;48.152;8.590;2022-08-03T08:12:15;13.88;;;2.15;;
10303;SDS011;5197;48.152;8.590;2022-08-03T08:14:43;2.70;;;1.60;;
10303;SDS011;5197;48.152;8.590;2022-08-03T08:17:12;6.95;;;1.80;;
10303;SDS011;5197;48.152;8.590;2022-08-03T08:19:39;1.90;;;1.67;;
10303;SDS011;5197;48.152;8.590;2022-08-03T08:22:17;1.75;;;1.42;;
10303;SDS011;5197;48.152;8.590;2022-08-03T08:24:56;8.80;;;1.98;;
10303;SDS011;5197;48.152;8.590;2022-08-03T08:27:26;1.60;;;1.50;;
10303;SDS011;5197;48.152;8.590;2022-08-03T08:30:15;4.72;;;1.90;;
10303;SDS011;5197;48.152;8.590;2022-08-03T08:32:44;1.50;;;1.40;;
10303;SDS011;5197;48.152;8.590;2022-08-03T08:35:11;4.10;;;1.60;;
10303;SDS011;5197;48.152;8.590;2022-08-03T08:37:39;2.28;;;1.60;;
10303;SDS011;5197;48.152;8.590;2022-08-03T08:40:06;1.67;;;1.30;;
10303;SDS011;5197;48.152;8.590;2022-08-03T08:42:38;1.67;;;1.58;;
10303;SDS011;5197;48.152;8.590;2022-08-03T08:45:22;1.40;;;1.40;;
10303;SDS011;5197;48.152;8.590;2022-08-03T08:47:50;3.22;;;1.70;;
10303;SDS011;5197;48.152;8.590;2022-08-03T08:50:24;2.78;;;1.88;;
10303;SDS011;5197;48.152;8.590;2022-08-03T08:52:53;3.35;;;1.50;;
10303;SDS011;5197;48.152;8.590;2022-08-03T08:55:22;1.60;;;1.13;;
10303;SDS011;5197;48.152;8.590;2022-08-03T08:57:51;1.75;;;1.30;;
10303;SDS011;5197;48.152;8.590;2022-08-03T09:00:24;1.75;;;1.40;;
10303;SDS011;5197;48.152;8.590;2022-08-03T09:02:51;1.25;;;1.20;;
10303;SDS011;5197;48.152;8.590;2022-08-03T09:05:19;1.40;;;1.30;;
10303;SDS011;5197;48.152;8.590;2022-08-03T09:08:06;2.00;;;1.38;;
10303;SDS011;5197;48.152;8.590;2022-08-03T09:10:33;1.42;;;1.30;;
10303;SDS011;5197;48.152;8.590;2022-08-03T09:13:00;2.40;;;1.40;;
10303;SDS011;5197;48.152;8.590;2022-08-03T09:15:29;3.40;;;1.23;;
10303;SDS011;5197;48.152;8.590;2022-08-03T09:18:02;2.85;;;1.30;;
10303;SDS011;5197;48.152;8.590;2022-08-03T09:20:30;1.20;;;1.20;;
10303;SDS011;5197;48.152;8.590;2022-08-03T09:25:50;1.45;;;1.35;;
10303;SDS011;5197;48.152;8.590;2022-08-03T09:28:25;1.33;;;1.30;;
10303;SDS011;5197;48.152;8.590;2022-08-03T09:31:34;1.25;;;1.25;;
10303;SDS011;5197;48.152;8.590;2022-08-03T09:34:15;2.70;;;1.50;;
10303;SDS011;5197;48.152;8.590;2022-08-03T09:36:44;1.52;;;1.50;;
10303;SDS011;5197;48.152;8.590;2022-08-03T09:39:14;1.60;;;1.17;;
10303;SDS011;5197;48.152;8.590;2022-08-03T09:44:44;1.48;;;1.48;;
10303;SDS011;5197;48.152;8.590;2022-08-03T09:47:14;3.70;;;1.40;;
10303;SDS011;5197;48.152;8.590;2022-08-03T09:50:10;1.35;;;1.35;;
10303;SDS011;5197;48.152;8.590;2022-08-03T09:52:38;1.20;;;1.20;;
10303;SDS011;5197;48.152;8.590;2022-08-03T09:55:18;1.67;;;1.52;;
10303;SDS011;5197;48.152;8.590;2022-08-03T09:58:10;1.20;;;1.20;;
10303;SDS011;5197;48.152;8.590;2022-08-03T10:00:53;2.50;;;1.20;;
10303;SDS011;5197;48.152;8.590;2022-08-03T10:03:21;1.88;;;1.33;;
10303;SDS011;5197;48.152;8.590;2022-08-03T10:05:49;1.60;;;1.50;;
10303;SDS011;5197;48.152;8.590;2022-08-03T10:08:22;2.90;;;1.40;;
10303;SDS011;5197;48.152;8.590;2022-08-03T10:10:50;2.05;;;1.50;;
10303;SDS011;5197;48.152;8.590;2022-08-03T10:13:23;1.30;;;1.27;;
10303;SDS011;5197;48.152;8.590;2022-08-03T10:15:50;1.35;;;1.30;;
10303;SDS011;5197;48.152;8.590;2022-08-03T10:18:37;1.20;;;1.20;;
10303;SDS011;5197;48.152;8.590;2022-08-03T10:21:06;1.30;;;1.30;;
10303;SDS011;5197;48.152;8.590;2022-08-03T10:23:36;1.17;;;1.17;;
10303;SDS011;5197;48.152;8.590;2022-08-03T10:26:06;1.70;;;1.60;;
10303;SDS011;5197;48.152;8.590;2022-08-03T10:28:34;1.85;;;1.40;;
10303;SDS011;5197;48.152;8.590;2022-08-03T10:31:10;1.30;;;1.30;;
10303;SDS011;5197;48.152;8.590;2022-08-03T10:33:43;1.63;;;1.52;;
10303;SDS011;5197;48.152;8.590;2022-08-03T10:36:17;1.30;;;1.30;;
10303;SDS011;5197;48.152;8.590;2022-08-03T10:38:50;1.27;;;1.25;;
10303;SDS011;5197;48.152;8.590;2022-08-03T10:41:19;1.60;;;1.50;;
10303;SDS011;5197;48.152;8.590;2022-08-03T10:44:09;3.35;;;1.33;;
10303;SDS011;5197;48.152;8.590;2022-08-03T10:46:49;1.33;;;1.20;;
10303;SDS011;5197;48.152;8.590;2022-08-03T10:49:18;1.17;;;1.17;;
10303;SDS011;5197;48.152;8.590;2022-08-03T10:52:01;1.75;;;1.40;;
10303;SDS011;5197;48.152;8.590;2022-08-03T10:54:42;1.48;;;1.38;;
10303;SDS011;5197;48.152;8.590;2022-08-03T10:57:46;1.38;;;1.30;;
10303;SDS011;5197;48.152;8.590;2022-08-03T11:00:19;1.48;;;1.42;;
10303;SDS011;5197;48.152;8.590;2022-08-03T11:03:06;1.30;;;1.30;;
10303;SDS011;5197;48.152;8.590;2022-08-03T11:05:40;2.00;;;1.50;;
10303;SDS011;5197;48.152;8.590;2022-08-03T11:10:46;1.50;;;1.40;;
10303;SDS011;5197;48.152;8.590;2022-08-03T11:13:14;4.05;;;1.50;;
10303;SDS011;5197;48.152;8.590;2022-08-03T11:15:44;1.95;;;1.45;;
10303;SDS011;5197;48.152;8.590;2022-08-03T11:18:12;2.97;;;1.40;;
10303;SDS011;5197;48.152;8.590;2022-08-03T11:20:44;4.32;;;1.27;;
10303;SDS011;5197;48.152;8.590;2022-08-03T11:23:40;2.10;;;1.35;;
10303;SDS011;5197;48.152;8.590;2022-08-03T11:26:26;1.30;;;1.30;;
10303;SDS011;5197;48.152;8.590;2022-08-03T11:29:09;1.45;;;1.25;;
10303;SDS011;5197;48.152;8.590;2022-08-03T11:31:58;1.48;;;1.40;;
10303;SDS011;5197;48.152;8.590;2022-08-03T11:34:25;2.97;;;1.20;;
10303;SDS011;5197;48.152;8.590;2022-08-03T11:39:54;4.93;;;1.67;;
10303;SDS011;5197;48.152;8.590;2022-08-03T11:44:50;1.30;;;1.30;;
10303;SDS011;5197;48.152;8.590;2022-08-03T11:47:28;1.60;;;1.50;;
10303;SDS011;5197;48.152;8.590;2022-08-03T11:49:58;1.45;;;1.45;;
10303;SDS011;5197;48.152;8.590;2022-08-03T11:52:33;4.10;;;1.33;;
10303;SDS011;5197;48.152;8.590;2022-08-03T11:55:01;1.95;;;1.40;;
10303;SDS011;5197;48.152;8.590;2022-08-03T11:57:34;1.27;;;1.27;;
10303;SDS011;5197;48.152;8.590;2022-08-03T12:00:22;1.10;;;1.10;;
10303;SDS011;5197;48.152;8.590;2022-08-03T12:02:56;1.42;;;1.40;;
10303;SDS011;5197;48.152;8.590;2022-08-03T12:05:39;2.75;;;1.50;;
10303;SDS011;5197;48.152;8.590;2022-08-03T12:08:07;1.50;;;1.40;;
10303;SDS011;5197;48.152;8.590;2022-08-03T12:10:35;1.50;;;1.40;;
10303;SDS011;5197;48.152;8.590;2022-08-03T12:13:05;4.43;;;1.40;;
10303;SDS011;5197;48.152;8.590;2022-08-03T12:15:56;1.83;;;1.30;;
10303;SDS011;5197;48.152;8.590;2022-08-03T12:18:26;1.35;;;1.25;;
10303;SDS011;5197;48.152;8.590;2022-08-03T12:21:02;1.15;;;1.15;;
10303;SDS011;5197;48.152;8.590;2022-08-03T12:23:30;1.40;;;1.30;;
10303;SDS011;5197;48.152;8.590;2022-08-03T12:26:06;1.20;;;1.10;;
10303;SDS011;5197;48.152;8.590;2022-08-03T12:28:35;1.20;;;1.20;;
10303;SDS011;5197;48.152;8.590;2022-08-03T12:31:04;1.20;;;1.20;;
10303;SDS011;5197;48.152;8.590;2022-08-03T12:33:53;1.35;;;1.35;;
10303;SDS011;5197;48.152;8.590;2022-08-03T12:36:33;2.63;;;1.38;;
10303;SDS011;5197;48.152;8.590;2022-08-03T12:39:05;1.40;;;1.30;;
10303;SDS011;5197;48.152;8.590;2022-08-03T12:41:35;2.42;;;1.40;;
10303;SDS011;5197;48.152;8.590;2022-08-03T12:44:04;1.25;;;1.20;;
10303;SDS011;5197;48.152;8.590;2022-08-03T12:49:04;1.30;;;1.30;;
10303;SDS011;5197;48.152;8.590;2022-08-03T12:54:15;1.30;;;1.30;;
10303;SDS011;5197;48.152;8.590;2022-08-03T12:59:27;4.45;;;1.45;;
10303;SDS011;5197;48.152;8.590;2022-08-03T13:02:01;1.40;;;1.40;;
10303;SDS011;5197;48.152;8.590;2022-08-03T13:04:35;1.83;;;1.40;;
10303;SDS011;5197;48.152;8.590;2022-08-03T13:07:03;1.27;;;1.25;;
10303;SDS011;5197;48.152;8.590;2022-08-03T13:12:24;1.20;;;1.20;;
10303;SDS011;5197;48.152;8.590;2022-08-03T13:14:56;1.65;;;1.35;;
10303;SDS011;5197;48.152;8.590;2022-08-03T13:17:25;2.30;;;1.42;;
10303;SDS011;5197;48.152;8.590;2022-08-03T13:19:53;1.60;;;1.50;;
10303;SDS011;5197;48.152;8.590;2022-08-03T13:22:21;3.42;;;1.48;;
10303;SDS011;5197;48.152;8.590;2022-08-03T13:24:53;1.42;;;1.42;;
10303;SDS011;5197;48.152;8.590;2022-08-03T13:27:24;1.33;;;1.25;;
10303;SDS011;5197;48.152;8.590;2022-08-03T13:30:11;4.25;;;1.83;;
10303;SDS011;5197;48.152;8.590;2022-08-03T13:32:43;3.28;;;1.40;;
10303;SDS011;5197;48.152;8.590;2022-08-03T13:35:10;3.15;;;1.70;;
10303;SDS011;5197;48.152;8.590;2022-08-03T13:37:41;1.50;;;1.40;;
10303;SDS011;5197;48.152;8.590;2022-08-03T13:40:14;1.40;;;1.30;;
10303;SDS011;5197;48.152;8.590;2022-08-03T13:42:41;1.40;;;1.40;;
10303;SDS011;5197;48.152;8.590;2022-08-03T13:45:08;1.30;;;1.30;;
10303;SDS011;5197;48.152;8.590;2022-08-03T13:47:36;2.72;;;1.42;;
10303;SDS011;5197;48.152;8.590;2022-08-03T13:50:03;1.40;;;1.40;;
10303;SDS011;5197;48.152;8.590;2022-08-03T13:52:31;1.23;;;1.23;;
10303;SDS011;5197;48.152;8.590;2022-08-03T13:55:01;1.15;;;1.15;;
10303;SDS011;5197;48.152;8.590;2022-08-03T13:57:29;1.42;;;1.33;;
10303;SDS011;5197;48.152;8.590;2022-08-03T14:00:17;2.50;;;1.58;;
10303;SDS011;5197;48.152;8.590;2022-08-03T14:02:53;1.25;;;1.25;;
10303;SDS011;5197;48.152;8.590;2022-08-03T14:05:39;2.03;;;1.33;;
10303;SDS011;5197;48.152;8.590;2022-08-03T14:08:08;1.40;;;1.30;;
10303;SDS011;5197;48.152;8.590;2022-08-03T14:10:37;1.30;;;1.30;;
10303;SDS011;5197;48.152;8.590;2022-08-03T14:13:06;1.50;;;1.40;;
10303;SDS011;5197;48.152;8.590;2022-08-03T14:15:34;2.28;;;1.38;;
10303;SDS011;5197;48.152;8.590;2022-08-03T14:18:04;1.20;;;1.20;;
10303;SDS011;5197;48.152;8.590;2022-08-03T14:20:41;2.80;;;1.13;;
10303;SDS011;5197;48.152;8.590;2022-08-03T14:23:19;1.13;;;1.13;;
10303;SDS011;5197;48.152;8.590;2022-08-03T14:25:53;1.63;;;1.50;;
10303;SDS011;5197;48.152;8.590;2022-08-03T14:28:20;1.40;;;1.35;;
10303;SDS011;5197;48.152;8.590;2022-08-03T14:30:49;1.77;;;1.52;;
10303;SDS011;5197;48.152;8.590;2022-08-03T14:33:17;2.72;;;1.45;;
10303;SDS011;5197;48.152;8.590;2022-08-03T14:35:44;1.15;;;1.15;;
10303;SDS011;5197;48.152;8.590;2022-08-03T14:38:12;1.55;;;1.27;;
10303;SDS011;5197;48.152;8.590;2022-08-03T14:40:39;1.17;;;1.17;;
10303;SDS011;5197;48.152;8.590;2022-08-03T14:43:06;1.30;;;1.30;;
10303;SDS011;5197;48.152;8.590;2022-08-03T14:45:33;2.30;;;1.20;;
10303;SDS011;5197;48.152;8.590;2022-08-03T14:48:01;1.20;;;1.20;;
10303;SDS011;5197;48.152;8.590;2022-08-03T14:50:49;1.52;;;1.20;;
10303;SDS011;5197;48.152;8.590;2022-08-03T14:53:18;1.40;;;1.30;;
10303;SDS011;5197;48.152;8.590;2022-08-03T14:55:46;1.30;;;1.30;;
10303;SDS011;5197;48.152;8.590;2022-08-03T14:58:18;1.92;;;1.27;;
10303;SDS011;5197;48.152;8.590;2022-08-03T15:00:48;1.38;;;1.23;;
10303;SDS011;5197;48.152;8.590;2022-08-03T15:03:16;1.20;;;1.20;;
10303;SDS011;5197;48.152;8.590;2022-08-03T15:05:46;1.65;;;1.55;;
10303;SDS011;5197;48.152;8.590;2022-08-03T15:08:14;1.42;;;1.40;;
10303;SDS011;5197;48.152;8.590;2022-08-03T15:10:41;1.50;;;1.40;;
10303;SDS011;5197;48.152;8.590;2022-08-03T15:13:10;2.50;;;1.40;;
10303;SDS011;5197;48.152;8.590;2022-08-03T15:15:38;1.20;;;1.20;;
10303;SDS011;5197;48.152;8.590;2022-08-03T15:18:05;1.67;;;1.55;;
10303;SDS011;5197;48.152;8.590;2022-08-03T15:20:33;1.73;;;1.50;;
10303;SDS011;5197;48.152;8.590;2022-08-03T15:23:15;1.50;;;1.40;;
10303;SDS011;5197;48.152;8.590;2022-08-03T15:25:44;2.55;;;1.38;;
10303;SDS011;5197;48.152;8.590;2022-08-03T15:28:31;1.70;;;1.60;;
10303;SDS011;5197;48.152;8.590;2022-08-03T15:30:58;5.03;;;1.60;;
10303;SDS011;5197;48.152;8.590;2022-08-03T15:33:26;2.33;;;1.38;;
10303;SDS011;5197;48.152;8.590;2022-08-03T15:35:54;1.35;;;1.35;;
10303;SDS011;5197;48.152;8.590;2022-08-03T15:38:22;1.55;;;1.30;;
10303;SDS011;5197;48.152;8.590;2022-08-03T15:40:51;1.40;;;1.30;;
10303;SDS011;5197;48.152;8.590;2022-08-03T15:43:22;1.40;;;1.30;;
10303;SDS011;5197;48.152;8.590;2022-08-03T15:45:49;1.45;;;1.35;;
10303;SDS011;5197;48.152;8.590;2022-08-03T15:48:37;1.50;;;1.40;;
10303;SDS011;5197;48.152;8.590;2022-08-03T15:51:05;3.33;;;1.50;;
10303;SDS011;5197;48.152;8.590;2022-08-03T15:53:32;1.42;;;1.30;;
10303;SDS011;5197;48.152;8.590;2022-08-03T15:56:00;1.48;;;1.40;;
10303;SDS011;5197;48.152;8.590;2022-08-03T15:58:35;5.55;;;1.60;;
10303;SDS011;5197;48.152;8.590;2022-08-03T16:01:23;2.47;;;1.42;;
10303;SDS011;5197;48.152;8.590;2022-08-03T16:03:51;1.95;;;1.40;;